createdAt,value
2017-09-19T00:02:24.112Z,99.90
2017-09-19T00:04:51.620Z,99.90
2017-09-19T00:07:19.872Z,99.90
2017-09-19T00:09:49.019Z,99.90
2017-09-19T00:12:16.577Z,99.90
2017-09-19T00:14:44.588Z,99.90
2017-09-19T00:17:12.106Z,99.90
2017-09-19T00:19:39.653Z,99.90
2017-09-19T00:22:07.169Z,99.90
2017-09-19T00:24:34.693Z,99.90
2017-09-19T00:27:02.196Z,99.90
2017-09-19T00:29:30.444Z,99.90
2017-09-19T00:31:57.965Z,99.90
2017-09-19T00:34:25.509Z,99.90
2017-09-19T00:36:52.996Z,99.90
2017-09-19T00:39:20.480Z,99.90
2017-09-19T00:41:47.997Z,99.90
2017-09-19T00:44:15.512Z,99.90
2017-09-19T00:46:43.122Z,99.90
2017-09-19T00:49:10.674Z,99.90
2017-09-19T00:51:38.164Z,99.90
2017-09-19T00:54:05.657Z,99.90
2017-09-19T00:56:33.974Z,99.90
2017-09-19T00:59:01.465Z,99.90
2017-09-19T01:01:28.987Z,99.90
2017-09-19T01:03:56.504Z,99.90
2017-09-19T01:06:24.790Z,99.90
2017-09-19T01:08:53.109Z,99.90
2017-09-19T01:11:20.616Z,99.90
2017-09-19T01:13:48.905Z,99.90
2017-09-19T01:16:17.189Z,99.90
2017-09-19T01:18:44.697Z,99.90
2017-09-19T01:21:12.227Z,99.90
2017-09-19T01:23:39.722Z,99.90
2017-09-19T01:26:07.345Z,99.90
2017-09-19T01:28:34.844Z,99.90
2017-09-19T01:31:02.459Z,99.90
2017-09-19T01:33:29.964Z,99.90
2017-09-19T01:35:57.481Z,99.90
2017-09-19T01:38:25.060Z,99.90
2017-09-19T01:40:52.602Z,99.90
2017-09-19T01:43:20.096Z,99.90
2017-09-19T01:45:47.585Z,99.90
2017-09-19T01:48:15.174Z,99.90
2017-09-19T01:50:42.688Z,99.90
2017-09-19T01:53:10.977Z,99.90
2017-09-19T01:55:39.256Z,99.90
2017-09-19T01:58:07.505Z,99.90
2017-09-19T02:00:35.007Z,99.90
2017-09-19T02:03:02.544Z,99.90
2017-09-19T02:05:30.812Z,99.90
2017-09-19T02:07:59.078Z,99.90
2017-09-19T02:10:26.598Z,99.90
2017-09-19T02:12:54.117Z,99.90
2017-09-19T02:15:22.393Z,99.90
2017-09-19T02:17:49.923Z,99.90
2017-09-19T02:20:17.437Z,99.90
2017-09-19T02:22:44.953Z,99.90
2017-09-19T02:25:13.262Z,99.90
2017-09-19T02:27:40.785Z,99.90
2017-09-19T02:30:09.065Z,99.90
2017-09-19T02:32:37.392Z,99.90
2017-09-19T02:35:04.942Z,99.90
2017-09-19T02:37:32.447Z,99.90
2017-09-19T02:40:00.058Z,99.90
2017-09-19T02:42:27.561Z,99.90
2017-09-19T02:44:55.082Z,99.90
2017-09-19T02:47:22.629Z,99.90
2017-09-19T02:49:50.141Z,99.90
2017-09-19T02:52:17.754Z,99.90
2017-09-19T02:54:45.292Z,99.90
2017-09-19T02:57:12.873Z,99.90
2017-09-19T02:59:40.392Z,99.90
2017-09-19T03:02:08.687Z,99.90
2017-09-19T03:04:36.195Z,99.90
2017-09-19T03:07:03.695Z,99.90
2017-09-19T03:09:31.993Z,99.90
2017-09-19T03:11:59.509Z,99.90
2017-09-19T03:14:27.044Z,99.90
2017-09-19T03:16:54.572Z,99.90
2017-09-19T03:19:22.076Z,99.90
2017-09-19T03:21:49.700Z,99.90
2017-09-19T03:24:17.240Z,99.90
2017-09-19T03:26:44.738Z,99.90
2017-09-19T03:29:12.243Z,99.90
2017-09-19T03:31:39.771Z,99.90
2017-09-19T03:34:07.293Z,99.90
2017-09-19T03:36:34.809Z,99.90
2017-09-19T03:39:03.116Z,99.90
2017-09-19T03:41:30.633Z,99.90
2017-09-19T03:43:58.917Z,99.90
2017-09-19T03:46:27.223Z,99.90
2017-09-19T03:48:54.727Z,99.90
2017-09-19T03:51:22.245Z,99.90
2017-09-19T03:53:49.783Z,99.90
2017-09-19T03:56:17.309Z,99.90
2017-09-19T03:58:44.837Z,99.90
2017-09-19T04:01:12.359Z,99.90
2017-09-19T04:03:39.858Z,99.90
2017-09-19T04:06:07.370Z,99.90
2017-09-19T04:08:34.891Z,99.90
2017-09-19T04:11:02.396Z,99.90
2017-09-19T04:13:29.951Z,99.90
2017-09-19T04:15:57.471Z,99.90
2017-09-19T04:18:25.735Z,99.90
2017-09-19T04:20:53.254Z,99.90
2017-09-19T04:23:20.792Z,99.90
2017-09-19T04:25:49.073Z,99.90
2017-09-19T04:28:16.590Z,99.90
2017-09-19T04:30:44.111Z,99.90
2017-09-19T04:33:11.651Z,99.90
2017-09-19T04:35:39.157Z,99.90
2017-09-19T04:38:06.693Z,99.90
2017-09-19T04:40:34.190Z,99.90
2017-09-19T04:43:01.709Z,99.90
2017-09-19T04:45:29.261Z,99.90
2017-09-19T04:47:56.933Z,99.90
2017-09-19T04:50:24.482Z,99.90
2017-09-19T04:52:51.997Z,99.90
2017-09-19T04:55:20.267Z,99.90
2017-09-19T04:57:47.802Z,99.90
2017-09-19T05:00:15.317Z,99.90
2017-09-19T05:02:42.827Z,99.90
2017-09-19T05:05:10.342Z,99.90
2017-09-19T05:07:37.911Z,99.90
2017-09-19T05:10:05.634Z,99.90
2017-09-19T05:12:33.913Z,99.90
2017-09-19T05:15:02.226Z,99.90
2017-09-19T05:17:29.723Z,99.90
2017-09-19T05:19:57.253Z,99.90
2017-09-19T05:22:24.765Z,99.90
2017-09-19T05:24:53.062Z,99.90
2017-09-19T05:27:20.638Z,99.90
2017-09-19T05:29:48.151Z,99.90
2017-09-19T05:32:16.428Z,99.90
2017-09-19T05:34:44.714Z,99.90
2017-09-19T05:37:12.976Z,99.90
2017-09-19T05:39:41.262Z,99.90
2017-09-19T05:42:09.577Z,99.90
2017-09-19T05:44:37.136Z,99.90
2017-09-19T05:47:04.660Z,99.90
2017-09-19T05:49:32.927Z,99.90
2017-09-19T05:52:01.229Z,99.90
2017-09-19T05:54:28.740Z,99.90
2017-09-19T05:56:56.279Z,99.90
2017-09-19T05:59:23.783Z,99.90
2017-09-19T06:01:52.085Z,99.90
2017-09-19T06:04:19.603Z,99.90
2017-09-19T06:06:47.867Z,99.90
2017-09-19T06:09:27.217Z,99.90
2017-09-19T06:11:54.715Z,99.90
2017-09-19T06:14:22.237Z,99.90
2017-09-19T06:16:49.755Z,99.90
2017-09-19T06:19:17.269Z,99.90
2017-09-19T06:21:45.565Z,99.90
2017-09-19T06:24:13.101Z,99.90
2017-09-19T06:26:41.371Z,99.90
2017-09-19T06:29:09.687Z,99.90
2017-09-19T06:31:37.245Z,99.90
2017-09-19T06:34:04.770Z,99.90
2017-09-19T06:36:33.058Z,99.90
2017-09-19T06:39:00.566Z,99.90
2017-09-19T06:41:28.089Z,99.90
2017-09-19T06:43:55.654Z,99.90
2017-09-19T06:46:23.155Z,99.90
2017-09-19T06:48:50.695Z,99.90
2017-09-19T06:51:18.202Z,99.90
2017-09-19T06:53:46.471Z,99.90
2017-09-19T06:56:14.760Z,99.90
2017-09-19T06:58:42.285Z,99.90
2017-09-19T07:01:11.310Z,99.90
2017-09-19T07:03:39.570Z,99.90
2017-09-19T07:06:07.843Z,99.90
2017-09-19T07:08:35.369Z,99.90
2017-09-19T07:11:02.892Z,99.90
2017-09-19T07:13:30.403Z,99.90
2017-09-19T07:15:58.681Z,99.90
2017-09-19T07:18:26.218Z,99.90
2017-09-19T07:20:53.721Z,99.90
2017-09-19T07:23:22.236Z,99.90
2017-09-19T07:25:50.102Z,99.90
2017-09-19T07:28:17.631Z,99.90
2017-09-19T07:30:45.917Z,99.90
2017-09-19T07:33:13.434Z,99.90
2017-09-19T07:35:40.964Z,99.90
2017-09-19T07:38:08.481Z,99.90
2017-09-19T07:40:36.823Z,99.90
2017-09-19T07:43:04.342Z,99.90
2017-09-19T07:45:31.880Z,99.90
2017-09-19T07:48:00.156Z,99.90
2017-09-19T07:50:28.458Z,99.90
2017-09-19T07:52:56.120Z,99.90
2017-09-19T07:55:23.678Z,99.90
2017-09-19T07:57:51.223Z,99.90
2017-09-19T08:00:18.718Z,99.90
2017-09-19T08:02:46.233Z,99.90
2017-09-19T08:05:13.769Z,99.90
2017-09-19T08:07:41.285Z,99.90
2017-09-19T08:10:08.797Z,99.90
2017-09-19T08:12:37.075Z,99.90
2017-09-19T08:15:05.358Z,99.90
2017-09-19T08:17:32.875Z,99.90
2017-09-19T08:20:00.371Z,99.90
2017-09-19T08:22:28.655Z,99.90
2017-09-19T08:24:56.152Z,99.90
2017-09-19T08:27:23.662Z,99.90
2017-09-19T08:29:51.964Z,99.90
2017-09-19T08:32:19.482Z,99.90
2017-09-19T08:34:47.769Z,99.90
2017-09-19T08:37:16.051Z,98.20
2017-09-19T08:39:44.329Z,90.20
2017-09-19T08:42:11.858Z,90.30
2017-09-19T08:44:39.370Z,85.10
2017-09-19T08:47:06.896Z,81.30
2017-09-19T08:49:35.163Z,88.00
2017-09-19T08:52:03.445Z,89.10
2017-09-19T08:54:31.754Z,86.50
2017-09-19T08:56:59.251Z,86.50
2017-09-19T08:59:26.766Z,90.70
2017-09-19T09:01:54.309Z,93.10
2017-09-19T09:04:21.821Z,94.70
2017-09-19T09:06:49.315Z,94.30
2017-09-19T09:09:17.599Z,96.60
2017-09-19T09:11:45.131Z,96.50
2017-09-19T09:14:12.637Z,96.20
2017-09-19T09:16:40.173Z,95.90
2017-09-19T09:19:08.448Z,96.50
2017-09-19T09:21:36.739Z,95.80
2017-09-19T09:24:04.335Z,95.80
2017-09-19T09:26:31.849Z,97.40
2017-09-19T09:28:59.370Z,97.10
2017-09-19T09:31:27.805Z,96.90
2017-09-19T09:33:55.317Z,96.90
2017-09-19T09:36:22.835Z,96.70
2017-09-19T09:38:50.362Z,97.30
2017-09-19T09:41:17.901Z,97.20
2017-09-19T09:43:46.163Z,95.60
2017-09-19T09:46:13.659Z,95.60
2017-09-19T09:48:41.189Z,94.10
2017-09-19T09:51:09.450Z,90.10
2017-09-19T09:53:38.483Z,86.90
2017-09-19T09:56:05.979Z,86.80
2017-09-19T09:58:33.479Z,87.90
2017-09-19T10:01:01.766Z,87.50
2017-09-19T10:03:30.042Z,89.70
2017-09-19T10:05:58.307Z,90.00
2017-09-19T10:08:26.600Z,88.10
2017-09-19T10:10:54.100Z,88.10
2017-09-19T10:13:21.629Z,84.80
2017-09-19T10:15:49.141Z,86.80
2017-09-19T10:18:16.669Z,86.60
2017-09-19T10:20:44.185Z,88.00
2017-09-19T10:23:12.486Z,91.30
2017-09-19T10:25:39.997Z,91.30
2017-09-19T10:28:07.545Z,91.60
2017-09-19T10:30:35.040Z,92.80
2017-09-19T10:33:02.624Z,93.40
2017-09-19T10:35:30.165Z,93.80
2017-09-19T10:37:57.677Z,93.60
2017-09-19T10:40:25.197Z,93.90
2017-09-19T10:42:52.716Z,94.40
2017-09-19T10:45:20.998Z,92.50
2017-09-19T10:47:49.295Z,92.60
2017-09-19T10:50:16.800Z,92.50
2017-09-19T10:52:44.318Z,92.00
2017-09-19T10:55:11.849Z,92.90
2017-09-19T10:57:40.110Z,93.70
2017-09-19T11:00:07.641Z,93.80
2017-09-19T11:02:35.160Z,93.70
2017-09-19T11:05:02.731Z,93.60
2017-09-19T11:07:30.231Z,94.10
2017-09-19T11:09:57.852Z,93.90
2017-09-19T11:12:25.509Z,94.20
2017-09-19T11:14:53.011Z,93.60
2017-09-19T11:17:21.327Z,94.40
2017-09-19T11:19:48.871Z,94.40
2017-09-19T11:22:17.150Z,92.60
2017-09-19T11:24:45.427Z,92.70
2017-09-19T11:27:13.731Z,92.40
2017-09-19T11:29:41.250Z,92.30
2017-09-19T11:32:09.557Z,93.10
2017-09-19T11:34:37.054Z,93.10
2017-09-19T11:37:04.551Z,92.70
2017-09-19T11:39:32.859Z,93.50
2017-09-19T11:42:00.368Z,93.50
2017-09-19T11:44:27.874Z,94.70
2017-09-19T11:46:55.399Z,95.10
2017-09-19T11:49:23.673Z,95.20
2017-09-19T11:51:51.965Z,94.80
2017-09-19T11:54:19.502Z,94.90
2017-09-19T11:56:47.767Z,94.50
2017-09-19T11:59:15.280Z,94.30
2017-09-19T12:01:42.797Z,93.30
2017-09-19T12:04:11.110Z,93.60
2017-09-19T12:06:38.611Z,93.60
2017-09-19T12:09:06.237Z,94.60
2017-09-19T12:11:33.774Z,91.50
2017-09-19T12:14:01.286Z,90.00
2017-09-19T12:16:28.806Z,90.00
2017-09-19T12:18:56.322Z,85.30
2017-09-19T12:21:23.836Z,83.40
2017-09-19T12:23:51.373Z,82.50
2017-09-19T12:26:18.871Z,80.20
2017-09-19T12:28:46.375Z,70.10
2017-09-19T12:31:14.681Z,63.90
2017-09-19T12:33:42.183Z,63.80
2017-09-19T12:36:09.705Z,66.80
2017-09-19T12:38:37.227Z,72.50
2017-09-19T12:41:05.514Z,81.70
2017-09-19T12:43:33.086Z,81.80
2017-09-19T12:46:00.607Z,84.20
2017-09-19T12:48:28.871Z,87.30
2017-09-19T12:50:56.375Z,87.30
2017-09-19T12:53:23.913Z,85.20
2017-09-19T12:55:52.222Z,77.60
2017-09-19T12:58:19.723Z,77.60
2017-09-19T13:00:47.247Z,81.00
2017-09-19T13:03:14.747Z,77.20
2017-09-19T13:05:43.028Z,74.30
2017-09-19T13:08:11.341Z,73.50
2017-09-19T13:10:38.834Z,73.40
2017-09-19T13:13:06.345Z,70.50
2017-09-19T13:15:33.876Z,72.00
2017-09-19T13:18:02.148Z,72.60
2017-09-19T13:20:30.450Z,72.50
2017-09-19T13:22:57.951Z,72.50
2017-09-19T13:25:25.446Z,69.60
2017-09-19T13:27:53.748Z,64.80
2017-09-19T13:30:21.319Z,64.70
2017-09-19T13:33:00.686Z,70.30
2017-09-19T13:35:28.183Z,75.20
2017-09-19T13:37:56.474Z,85.10
2017-09-19T13:40:23.994Z,85.00
2017-09-19T13:42:51.514Z,88.90
2017-09-19T13:45:19.062Z,89.90
2017-09-19T13:47:46.598Z,91.10
2017-09-19T13:50:14.867Z,92.80
2017-09-19T13:52:43.145Z,92.50
2017-09-19T13:55:11.469Z,93.20
2017-09-19T13:57:38.982Z,93.20
2017-09-19T14:00:07.265Z,93.50
2017-09-19T14:02:34.809Z,93.50
2017-09-19T14:05:03.121Z,93.60
2017-09-19T14:07:32.293Z,93.00
2017-09-19T14:09:59.841Z,93.00
2017-09-19T14:12:28.102Z,93.40
2017-09-19T14:14:56.362Z,93.50
2017-09-19T14:17:23.889Z,93.40
2017-09-19T14:19:51.444Z,92.80
2017-09-19T14:22:18.982Z,92.50
2017-09-19T14:24:47.243Z,90.80
2017-09-19T14:27:15.522Z,89.40
2017-09-19T14:29:43.825Z,85.60
2017-09-19T14:32:11.329Z,85.50
2017-09-19T14:34:38.831Z,82.60
2017-09-19T14:37:06.369Z,84.30
2017-09-19T14:39:34.682Z,86.20
2017-09-19T14:42:02.193Z,86.20
2017-09-19T14:44:29.801Z,83.70
2017-09-19T14:46:57.312Z,83.00
2017-09-19T14:49:24.834Z,80.10
2017-09-19T14:51:52.364Z,75.20
2017-09-19T14:54:19.882Z,76.90
2017-09-19T14:56:48.161Z,65.80
2017-09-19T14:59:16.450Z,58.40
2017-09-19T15:01:44.750Z,54.20
2017-09-19T15:04:12.264Z,54.20
2017-09-19T15:06:39.896Z,49.50
2017-09-19T15:09:07.481Z,46.10
2017-09-19T15:11:36.497Z,44.30
2017-09-19T15:14:04.773Z,42.90
2017-09-19T15:16:33.087Z,43.70
2017-09-19T15:19:00.587Z,43.60
2017-09-19T15:21:28.095Z,46.40
2017-09-19T15:23:55.606Z,49.40
2017-09-19T15:26:23.876Z,52.60
2017-09-19T15:28:51.399Z,52.60
2017-09-19T15:31:18.903Z,52.50
2017-09-19T15:33:46.435Z,52.60
2017-09-19T15:36:13.955Z,51.80
2017-09-19T15:38:41.529Z,52.40
2017-09-19T15:41:09.063Z,53.00
2017-09-19T15:43:37.341Z,55.20
2017-09-19T15:46:05.646Z,57.00
2017-09-19T15:48:33.151Z,57.00
2017-09-19T15:51:00.647Z,57.70
2017-09-19T15:53:28.172Z,59.50
2017-09-19T15:55:56.449Z,63.70
2017-09-19T15:58:24.039Z,64.30
2017-09-19T16:00:51.553Z,66.30
2017-09-19T16:03:19.096Z,70.90
2017-09-19T16:05:46.621Z,73.00
2017-09-19T16:08:14.132Z,76.50
2017-09-19T16:10:41.661Z,77.30
2017-09-19T16:13:09.175Z,81.10
2017-09-19T16:15:37.481Z,84.10
2017-09-19T16:18:05.042Z,84.10
2017-09-19T16:20:32.553Z,85.00
2017-09-19T16:23:00.084Z,86.10
2017-09-19T16:25:27.588Z,88.60
2017-09-19T16:27:55.133Z,90.20
2017-09-19T16:30:23.399Z,91.90
2017-09-19T16:32:50.913Z,91.90
2017-09-19T16:35:18.427Z,92.10
2017-09-19T16:37:46.705Z,92.50
2017-09-19T16:40:15.020Z,93.40
2017-09-19T16:42:43.301Z,93.90
2017-09-19T16:45:10.803Z,93.90
2017-09-19T16:47:38.341Z,94.10
2017-09-19T16:50:05.858Z,95.40
2017-09-19T16:52:33.360Z,95.70
2017-09-19T16:55:00.982Z,96.40
2017-09-19T16:57:28.542Z,96.70
2017-09-19T16:59:56.103Z,97.40
2017-09-19T17:02:23.603Z,97.80
2017-09-19T17:04:51.116Z,98.50
2017-09-19T17:07:18.639Z,99.40
2017-09-19T17:09:46.923Z,99.90
2017-09-19T17:12:15.201Z,99.90
2017-09-19T17:14:43.505Z,99.90
2017-09-19T17:17:11.004Z,99.90
2017-09-19T17:19:38.527Z,99.90
2017-09-19T17:22:06.053Z,99.90
2017-09-19T17:24:34.330Z,99.90
2017-09-19T17:27:02.624Z,99.90
2017-09-19T17:29:30.193Z,99.90
2017-09-19T17:31:57.734Z,99.90
2017-09-19T17:34:25.234Z,99.90
2017-09-19T17:36:52.739Z,99.90
2017-09-19T17:39:21.022Z,99.90
2017-09-19T17:41:48.536Z,99.90
2017-09-19T17:44:16.263Z,99.90
2017-09-19T17:46:43.762Z,99.90
2017-09-19T17:49:11.383Z,99.90
2017-09-19T17:51:38.903Z,99.90
2017-09-19T17:54:07.214Z,99.90
2017-09-19T17:56:34.735Z,99.90
2017-09-19T17:59:03.009Z,99.90
2017-09-19T18:01:31.338Z,99.90
2017-09-19T18:03:58.860Z,99.90
2017-09-19T18:06:27.135Z,99.90
2017-09-19T18:08:55.446Z,99.90
2017-09-19T18:11:22.965Z,99.90
2017-09-19T18:13:50.483Z,99.90
2017-09-19T18:16:18.009Z,99.90
2017-09-19T18:18:45.511Z,99.90
2017-09-19T18:21:13.034Z,99.90
2017-09-19T18:23:40.574Z,99.90
2017-09-19T18:26:08.079Z,99.90
2017-09-19T18:28:35.649Z,99.90
2017-09-19T18:31:03.171Z,99.90
2017-09-19T18:33:30.685Z,99.90
2017-09-19T18:35:58.988Z,99.90
2017-09-19T18:38:26.504Z,99.90
2017-09-19T18:40:54.026Z,99.90
2017-09-19T18:43:21.563Z,99.90
2017-09-19T18:45:49.066Z,99.90
2017-09-19T18:48:16.590Z,99.90
2017-09-19T18:50:44.133Z,99.90
2017-09-19T18:53:11.635Z,99.90
2017-09-19T18:55:39.165Z,99.90
2017-09-19T18:58:06.691Z,99.90
2017-09-19T19:00:34.955Z,99.90
2017-09-19T19:03:03.278Z,99.90
2017-09-19T19:05:30.803Z,99.90
2017-09-19T19:07:59.081Z,99.90
2017-09-19T19:10:27.346Z,99.90
2017-09-19T19:12:55.652Z,99.90
2017-09-19T19:15:23.155Z,99.90
2017-09-19T19:17:50.655Z,99.90
2017-09-19T19:20:18.205Z,99.90
2017-09-19T19:22:46.491Z,99.90
2017-09-19T19:25:13.998Z,99.90
2017-09-19T19:27:41.536Z,99.90
2017-09-19T19:30:09.030Z,99.90
2017-09-19T19:32:36.557Z,99.90
2017-09-19T19:35:04.098Z,99.90
2017-09-19T19:37:31.599Z,99.90
2017-09-19T19:39:59.112Z,99.90
2017-09-19T19:42:26.652Z,99.90
2017-09-19T19:44:54.935Z,99.90
2017-09-19T19:47:22.453Z,99.90
2017-09-19T19:49:51.510Z,99.90
2017-09-19T19:52:19.017Z,99.90
2017-09-19T19:54:46.628Z,99.90
2017-09-19T19:57:14.155Z,99.90
2017-09-19T19:59:42.419Z,99.90
2017-09-19T20:02:10.682Z,99.90
2017-09-19T20:04:38.213Z,99.90
2017-09-19T20:07:05.715Z,99.90
2017-09-19T20:09:33.983Z,99.90
2017-09-19T20:12:02.275Z,99.90
2017-09-19T20:14:30.558Z,99.90
2017-09-19T20:16:58.059Z,99.90
2017-09-19T20:19:25.579Z,99.90
2017-09-19T20:21:53.093Z,99.90
2017-09-19T20:24:20.620Z,99.90
2017-09-19T20:26:48.124Z,99.90
2017-09-19T20:29:15.639Z,99.90
2017-09-19T20:31:43.140Z,99.90
2017-09-19T20:34:10.667Z,99.90
2017-09-19T20:36:38.163Z,99.90
2017-09-19T20:39:06.422Z,99.90
2017-09-19T20:41:33.939Z,99.90
2017-09-19T20:44:01.450Z,99.90
2017-09-19T20:46:28.962Z,99.90
2017-09-19T20:48:56.505Z,99.90
2017-09-19T20:51:24.023Z,99.90
2017-09-19T20:53:51.585Z,99.90
2017-09-19T20:56:19.101Z,99.90
2017-09-19T20:58:46.646Z,99.90
2017-09-19T21:01:14.189Z,99.90
2017-09-19T21:03:47.338Z,99.90
2017-09-19T21:06:20.477Z,99.90
2017-09-19T21:08:53.645Z,99.90
2017-09-19T21:11:26.985Z,99.90
2017-09-19T21:14:00.157Z,99.90
2017-09-19T21:16:33.525Z,99.90
2017-09-19T21:19:07.537Z,99.90
2017-09-19T21:21:35.089Z,99.90
2017-09-19T21:24:04.098Z,99.90
2017-09-19T21:26:32.424Z,99.90
2017-09-19T21:28:59.962Z,99.90
2017-09-19T21:31:27.543Z,99.90
2017-09-19T21:33:55.053Z,99.90
2017-09-19T21:36:23.342Z,99.90
2017-09-19T21:38:51.747Z,99.90
2017-09-19T21:41:19.323Z,99.90
2017-09-19T21:43:46.878Z,99.90
2017-09-19T21:46:14.393Z,99.90
2017-09-19T21:48:42.654Z,99.90
2017-09-19T21:51:10.193Z,99.90
2017-09-19T21:53:37.701Z,99.90
2017-09-19T21:56:05.276Z,99.90
2017-09-19T21:58:32.820Z,99.90
2017-09-19T22:01:00.451Z,99.90
2017-09-19T22:03:28.714Z,99.90
2017-09-19T22:05:56.243Z,99.90
2017-09-19T22:08:23.751Z,99.90
2017-09-19T22:10:52.043Z,99.90
2017-09-19T22:13:19.591Z,99.90
2017-09-19T22:15:47.863Z,99.90
2017-09-19T22:18:16.127Z,99.90
2017-09-19T22:20:43.667Z,99.90
2017-09-19T22:23:11.191Z,99.90
2017-09-19T22:25:38.701Z,99.90
2017-09-19T22:28:07.010Z,99.90
2017-09-19T22:30:34.523Z,99.90
2017-09-19T22:33:02.838Z,99.90
2017-09-19T22:35:31.137Z,99.90
2017-09-19T22:37:58.656Z,99.90
2017-09-19T22:40:26.965Z,99.90
2017-09-19T22:42:54.486Z,99.90
2017-09-19T22:45:21.996Z,99.90
2017-09-19T22:47:49.512Z,99.90
2017-09-19T22:50:17.793Z,99.90
2017-09-19T22:52:46.076Z,99.90
2017-09-19T22:55:13.607Z,99.90
2017-09-19T22:57:41.111Z,99.90
2017-09-19T23:00:08.626Z,99.90
2017-09-19T23:02:36.922Z,99.90
2017-09-19T23:05:04.449Z,99.90
2017-09-19T23:07:31.946Z,99.90
2017-09-19T23:09:59.493Z,99.90
2017-09-19T23:12:27.774Z,99.90
2017-09-19T23:14:56.040Z,99.90
2017-09-19T23:17:24.330Z,99.90
2017-09-19T23:19:51.835Z,99.90
2017-09-19T23:22:19.390Z,99.90
2017-09-19T23:24:46.929Z,99.90
2017-09-19T23:27:14.447Z,99.90
2017-09-19T23:29:42.732Z,99.90
2017-09-19T23:32:11.040Z,99.90
2017-09-19T23:34:38.538Z,99.90
2017-09-19T23:37:06.055Z,99.90
2017-09-19T23:39:33.588Z,99.90
2017-09-19T23:42:01.871Z,99.90
2017-09-19T23:44:29.397Z,99.90
2017-09-19T23:46:57.705Z,99.90
2017-09-19T23:49:25.287Z,99.90
2017-09-19T23:51:52.806Z,99.90
2017-09-19T23:54:21.094Z,99.90
2017-09-19T23:56:49.364Z,99.90
2017-09-19T23:59:19.792Z,99.90
